Date,TemperatureHighF,TemperatureAvgF,TemperatureLowF,DewpointHighF,DewpointAvgF,DewpointLowF,HumidityHigh,HumidityAvg,HumidityLow,PressureMaxIn,PressureMinIn,WindSpeedMaxMPH,WindSpeedAvgMPH,GustSpeedMaxMPH,PrecipitationSumIn
2013-2-1,67,55,44,45,38,30,89,57,25,30.37,30.23,12,3,15,0.00
2013-2-2,73,57,45,49,43,36,93,62,29,30.31,30.16,8,2,13,0.00
2013-2-3,69,54,41,56,48,39,97,82,58,30.21,30.10,8,1,13,0.00
2013-2-4,71,54,42,56,44,36,98,75,30,30.15,30.04,6,1,9,0.00
2013-2-5,75,58,45,57,50,43,96,77,46,30.10,30.00,8,1,13,0.00
2013-2-6,79,67,58,66,60,55,94,80,54,30.10,30.02,7,1,13,0.00
2013-2-7,78,69,62,68,64,59,96,86,61,30.06,29.83,21,5,22,0.15
2013-2-8,75,66,57,67,62,55,96,87,66,30.09,29.91,11,4,15,0.00
2013-2-9,78,64,55,59,56,53,97,77,43,30.20,30.08,9,2,13,0.00
2013-2-10,82,69,61,65,61,57,89,76,52,30.24,30.13,11,3,14,0.00
2013-2-11,80,71,64,69,65,61,92,81,67,30.19,30.08,12,4,17,0.00
2013-2-12,80,72,68,72,69,66,97,90,77,30.10,29.95,16,5,19,0.00
2013-2-13,78,72,60,73,70,56,98,93,83,29.96,29.86,14,6,21,0.19
2013-2-14,65,62,60,62,59,56,96,92,81,30.07,29.93,8,1,10,0.40
2013-2-15,68,60,55,59,55,51,97,86,59,30.09,29.97,10,2,10,0.04
2013-2-16,67,57,49,54,48,37,95,72,50,30.15,29.96,20,5,21,0.00
2013-2-17,54,48,41,38,28,22,68,46,33,30.34,30.15,18,6,20,0.00
2013-2-18,71,51,34,50,40,28,92,68,35,30.36,30.20,6,1,14,0.00
2013-2-19,75,64,50,63,57,47,94,79,60,30.22,30.09,16,3,19,0.00
2013-2-20,78,66,60,66,61,55,97,87,62,30.13,30.02,7,2,9,0.00
2013-2-21,81,68,58,68,62,56,96,84,63,30.11,29.99,8,1,12,0.00
2013-2-22,82,70,60,72,66,60,98,88,69,30.07,30.00,12,3,16,0.00
2013-2-23,79,72,68,73,70,67,97,93,82,30.01,29.91,12,5,15,0.00
2013-2-24,80,72,68,72,69,67,98,93,75,29.97,29.88,8,3,12,0.00
2013-2-25,80,73,68,73,70,67,97,89,74,29.90,29.77,14,4,18,0.00
2013-2-26,75,72,67,72,69,64,96,89,78,29.84,29.70,18,6,31,0.19
2013-2-27,71,64,59,63,58,54,94,79,61,29.99,29.88,9,2,12,0.00
2013-2-28,72,61,52,58,54,50,97,77,55,30.01,29.92,10,2,14,0.00